sensor_id;sensor_type;location;lat;lon;timestamp;P1;durP1;ratioP1;P2;durP2;ratioP2
54539;SDS011;40438;52.992;18.604;2024-02-26T00:02:22;41.38;;;18.33;;
54539;SDS011;40438;52.992;18.604;2024-02-26T00:04:48;55.42;;;17.85;;
54539;SDS011;40438;52.992;18.604;2024-02-26T00:07:13;47.40;;;16.85;;
54539;SDS011;40438;52.992;18.604;2024-02-26T00:09:39;46.78;;;16.67;;
54539;SDS011;40438;52.992;18.604;2024-02-26T00:12:05;38.92;;;17.00;;
54539;SDS011;40438;52.992;18.604;2024-02-26T00:14:31;45.75;;;16.77;;
54539;SDS011;40438;52.992;18.604;2024-02-26T00:16:58;48.78;;;18.08;;
54539;SDS011;40438;52.992;18.604;2024-02-26T00:19:24;52.22;;;19.27;;
54539;SDS011;40438;52.992;18.604;2024-02-26T00:21:50;54.33;;;20.02;;
54539;SDS011;40438;52.992;18.604;2024-02-26T00:24:16;59.67;;;20.90;;
54539;SDS011;40438;52.992;18.604;2024-02-26T00:26:42;54.60;;;19.40;;
54539;SDS011;40438;52.992;18.604;2024-02-26T00:29:07;86.65;;;24.20;;
54539;SDS011;40438;52.992;18.604;2024-02-26T00:31:33;67.30;;;22.67;;
54539;SDS011;40438;52.992;18.604;2024-02-26T00:34:00;90.85;;;28.60;;
54539;SDS011;40438;52.992;18.604;2024-02-26T00:36:26;72.20;;;23.05;;
54539;SDS011;40438;52.992;18.604;2024-02-26T00:38:52;62.25;;;23.55;;
54539;SDS011;40438;52.992;18.604;2024-02-26T00:41:17;63.90;;;23.45;;
54539;SDS011;40438;52.992;18.604;2024-02-26T00:43:43;59.42;;;23.33;;
54539;SDS011;40438;52.992;18.604;2024-02-26T00:46:10;61.50;;;22.98;;
54539;SDS011;40438;52.992;18.604;2024-02-26T00:48:36;60.35;;;24.08;;
54539;SDS011;40438;52.992;18.604;2024-02-26T00:51:03;51.60;;;21.35;;
54539;SDS011;40438;52.992;18.604;2024-02-26T00:53:30;49.47;;;19.23;;
54539;SDS011;40438;52.992;18.604;2024-02-26T00:55:55;52.22;;;19.63;;
54539;SDS011;40438;52.992;18.604;2024-02-26T00:58:21;46.72;;;19.35;;
54539;SDS011;40438;52.992;18.604;2024-02-26T01:00:47;50.30;;;20.20;;
54539;SDS011;40438;52.992;18.604;2024-02-26T01:03:13;60.53;;;20.75;;
54539;SDS011;40438;52.992;18.604;2024-02-26T01:05:38;51.65;;;18.98;;
54539;SDS011;40438;52.992;18.604;2024-02-26T01:08:06;51.13;;;18.95;;
54539;SDS011;40438;52.992;18.604;2024-02-26T01:10:31;108.60;;;35.17;;
54539;SDS011;40438;52.992;18.604;2024-02-26T01:12:57;101.65;;;36.10;;
54539;SDS011;40438;52.992;18.604;2024-02-26T01:15:23;65.25;;;23.35;;
54539;SDS011;40438;52.992;18.604;2024-02-26T01:17:49;65.95;;;24.27;;
54539;SDS011;40438;52.992;18.604;2024-02-26T01:20:15;57.35;;;20.48;;
54539;SDS011;40438;52.992;18.604;2024-02-26T01:22:40;49.42;;;17.13;;
54539;SDS011;40438;52.992;18.604;2024-02-26T01:25:08;38.28;;;16.65;;
54539;SDS011;40438;52.992;18.604;2024-02-26T01:27:34;51.00;;;18.38;;
54539;SDS011;40438;52.992;18.604;2024-02-26T01:29:59;40.35;;;17.92;;
54539;SDS011;40438;52.992;18.604;2024-02-26T01:32:25;45.33;;;17.02;;
54539;SDS011;40438;52.992;18.604;2024-02-26T01:34:51;47.88;;;18.98;;
54539;SDS011;40438;52.992;18.604;2024-02-26T01:37:17;40.58;;;17.85;;
54539;SDS011;40438;52.992;18.604;2024-02-26T01:39:42;44.28;;;15.52;;
54539;SDS011;40438;52.992;18.604;2024-02-26T01:42:09;37.13;;;15.52;;
54539;SDS011;40438;52.992;18.604;2024-02-26T01:44:35;43.50;;;15.65;;
54539;SDS011;40438;52.992;18.604;2024-02-26T01:47:01;51.45;;;19.15;;
54539;SDS011;40438;52.992;18.604;2024-02-26T01:49:27;49.45;;;18.17;;
54539;SDS011;40438;52.992;18.604;2024-02-26T01:51:53;44.70;;;18.05;;
54539;SDS011;40438;52.992;18.604;2024-02-26T01:54:20;41.55;;;15.95;;
54539;SDS011;40438;52.992;18.604;2024-02-26T01:56:46;37.33;;;16.40;;
54539;SDS011;40438;52.992;18.604;2024-02-26T01:59:13;40.20;;;16.50;;
54539;SDS011;40438;52.992;18.604;2024-02-26T02:01:39;42.08;;;15.77;;
54539;SDS011;40438;52.992;18.604;2024-02-26T02:04:08;45.67;;;16.65;;
54539;SDS011;40438;52.992;18.604;2024-02-26T02:06:34;45.58;;;16.63;;
54539;SDS011;40438;52.992;18.604;2024-02-26T02:09:01;41.33;;;16.52;;
54539;SDS011;40438;52.992;18.604;2024-02-26T02:11:27;50.25;;;17.10;;
54539;SDS011;40438;52.992;18.604;2024-02-26T02:13:53;40.95;;;17.30;;
54539;SDS011;40438;52.992;18.604;2024-02-26T02:16:20;44.17;;;17.45;;
54539;SDS011;40438;52.992;18.604;2024-02-26T02:18:45;47.97;;;17.40;;
54539;SDS011;40438;52.992;18.604;2024-02-26T02:21:13;42.65;;;16.70;;
54539;SDS011;40438;52.992;18.604;2024-02-26T02:23:38;38.80;;;16.92;;
54539;SDS011;40438;52.992;18.604;2024-02-26T02:26:04;35.15;;;13.20;;
54539;SDS011;40438;52.992;18.604;2024-02-26T02:28:30;41.67;;;15.43;;
54539;SDS011;40438;52.992;18.604;2024-02-26T02:30:56;28.35;;;14.15;;
54539;SDS011;40438;52.992;18.604;2024-02-26T02:33:22;37.20;;;15.07;;
54539;SDS011;40438;52.992;18.604;2024-02-26T02:35:48;35.58;;;15.02;;
54539;SDS011;40438;52.992;18.604;2024-02-26T02:38:15;40.95;;;13.73;;
54539;SDS011;40438;52.992;18.604;2024-02-26T02:40:41;38.85;;;13.88;;
54539;SDS011;40438;52.992;18.604;2024-02-26T02:43:07;36.30;;;13.20;;
54539;SDS011;40438;52.992;18.604;2024-02-26T02:45:32;32.92;;;13.50;;
54539;SDS011;40438;52.992;18.604;2024-02-26T02:47:58;29.63;;;13.18;;
54539;SDS011;40438;52.992;18.604;2024-02-26T02:50:24;37.78;;;14.75;;
54539;SDS011;40438;52.992;18.604;2024-02-26T02:52:50;38.05;;;14.77;;
54539;SDS011;40438;52.992;18.604;2024-02-26T02:55:17;34.47;;;14.20;;
54539;SDS011;40438;52.992;18.604;2024-02-26T02:57:43;39.30;;;15.98;;
54539;SDS011;40438;52.992;18.604;2024-02-26T03:00:09;39.58;;;15.88;;
54539;SDS011;40438;52.992;18.604;2024-02-26T03:02:36;41.28;;;15.30;;
54539;SDS011;40438;52.992;18.604;2024-02-26T03:05:02;33.33;;;14.63;;
54539;SDS011;40438;52.992;18.604;2024-02-26T03:07:28;32.95;;;14.48;;
54539;SDS011;40438;52.992;18.604;2024-02-26T03:09:54;36.95;;;14.85;;
54539;SDS011;40438;52.992;18.604;2024-02-26T03:12:21;46.20;;;15.75;;
54539;SDS011;40438;52.992;18.604;2024-02-26T03:14:47;39.17;;;17.27;;
54539;SDS011;40438;52.992;18.604;2024-02-26T03:17:13;44.25;;;16.42;;
54539;SDS011;40438;52.992;18.604;2024-02-26T03:19:38;45.25;;;15.95;;
54539;SDS011;40438;52.992;18.604;2024-02-26T03:22:04;44.28;;;15.82;;
54539;SDS011;40438;52.992;18.604;2024-02-26T03:24:30;38.63;;;16.00;;
54539;SDS011;40438;52.992;18.604;2024-02-26T03:26:56;31.63;;;14.45;;
54539;SDS011;40438;52.992;18.604;2024-02-26T03:29:23;41.70;;;14.55;;
54539;SDS011;40438;52.992;18.604;2024-02-26T03:31:49;36.13;;;14.25;;
54539;SDS011;40438;52.992;18.604;2024-02-26T03:34:15;34.80;;;14.07;;
54539;SDS011;40438;52.992;18.604;2024-02-26T03:36:41;40.33;;;12.95;;
54539;SDS011;40438;52.992;18.604;2024-02-26T03:39:07;39.42;;;13.50;;
54539;SDS011;40438;52.992;18.604;2024-02-26T03:41:32;40.28;;;15.70;;
54539;SDS011;40438;52.992;18.604;2024-02-26T03:43:58;42.22;;;14.57;;
54539;SDS011;40438;52.992;18.604;2024-02-26T03:46:25;39.58;;;14.07;;
54539;SDS011;40438;52.992;18.604;2024-02-26T03:48:51;47.80;;;14.13;;
54539;SDS011;40438;52.992;18.604;2024-02-26T03:51:17;40.80;;;13.65;;
54539;SDS011;40438;52.992;18.604;2024-02-26T03:53:43;35.42;;;13.55;;
54539;SDS011;40438;52.992;18.604;2024-02-26T03:56:08;42.63;;;15.27;;
54539;SDS011;40438;52.992;18.604;2024-02-26T03:58:37;99.55;;;24.33;;
54539;SDS011;40438;52.992;18.604;2024-02-26T04:01:02;73.43;;;22.98;;
54539;SDS011;40438;52.992;18.604;2024-02-26T04:03:30;48.83;;;16.92;;
54539;SDS011;40438;52.992;18.604;2024-02-26T04:05:55;41.20;;;17.88;;
54539;SDS011;40438;52.992;18.604;2024-02-26T04:08:21;51.85;;;16.75;;
54539;SDS011;40438;52.992;18.604;2024-02-26T04:10:47;55.85;;;18.05;;
54539;SDS011;40438;52.992;18.604;2024-02-26T04:13:13;49.28;;;18.48;;
54539;SDS011;40438;52.992;18.604;2024-02-26T04:15:38;61.70;;;21.15;;
54539;SDS011;40438;52.992;18.604;2024-02-26T04:18:04;81.30;;;25.90;;
54539;SDS011;40438;52.992;18.604;2024-02-26T04:20:31;58.83;;;20.45;;
54539;SDS011;40438;52.992;18.604;2024-02-26T04:22:57;52.35;;;17.48;;
54539;SDS011;40438;52.992;18.604;2024-02-26T04:25:23;53.90;;;17.60;;
54539;SDS011;40438;52.992;18.604;2024-02-26T04:27:49;41.33;;;14.80;;
54539;SDS011;40438;52.992;18.604;2024-02-26T04:30:14;30.88;;;15.00;;
54539;SDS011;40438;52.992;18.604;2024-02-26T04:32:40;37.65;;;13.45;;
54539;SDS011;40438;52.992;18.604;2024-02-26T04:35:06;44.00;;;15.27;;
54539;SDS011;40438;52.992;18.604;2024-02-26T04:37:33;38.80;;;13.88;;
54539;SDS011;40438;52.992;18.604;2024-02-26T04:39:59;27.48;;;12.75;;
54539;SDS011;40438;52.992;18.604;2024-02-26T04:42:25;33.30;;;12.93;;
54539;SDS011;40438;52.992;18.604;2024-02-26T04:44:51;27.65;;;12.50;;
54539;SDS011;40438;52.992;18.604;2024-02-26T04:47:17;34.72;;;13.25;;
54539;SDS011;40438;52.992;18.604;2024-02-26T04:49:43;31.52;;;11.77;;
54539;SDS011;40438;52.992;18.604;2024-02-26T04:52:09;35.88;;;12.18;;
54539;SDS011;40438;52.992;18.604;2024-02-26T04:54:36;28.98;;;11.23;;
54539;SDS011;40438;52.992;18.604;2024-02-26T04:57:02;29.10;;;11.32;;
54539;SDS011;40438;52.992;18.604;2024-02-26T04:59:28;27.33;;;10.95;;
54539;SDS011;40438;52.992;18.604;2024-02-26T05:01:53;29.02;;;11.02;;
54539;SDS011;40438;52.992;18.604;2024-02-26T05:04:19;26.50;;;11.55;;
54539;SDS011;40438;52.992;18.604;2024-02-26T05:06:45;28.80;;;11.30;;
54539;SDS011;40438;52.992;18.604;2024-02-26T05:09:11;24.08;;;11.07;;
54539;SDS011;40438;52.992;18.604;2024-02-26T05:11:38;24.58;;;11.27;;
54539;SDS011;40438;52.992;18.604;2024-02-26T05:14:03;26.45;;;11.93;;
54539;SDS011;40438;52.992;18.604;2024-02-26T05:16:29;26.48;;;11.65;;
54539;SDS011;40438;52.992;18.604;2024-02-26T05:18:55;26.90;;;10.88;;
54539;SDS011;40438;52.992;18.604;2024-02-26T05:21:21;27.23;;;11.45;;
54539;SDS011;40438;52.992;18.604;2024-02-26T05:23:46;25.17;;;11.70;;
54539;SDS011;40438;52.992;18.604;2024-02-26T05:26:18;31.10;;;13.40;;
54539;SDS011;40438;52.992;18.604;2024-02-26T05:28:46;34.33;;;11.30;;
54539;SDS011;40438;52.992;18.604;2024-02-26T05:31:12;27.88;;;11.40;;
54539;SDS011;40438;52.992;18.604;2024-02-26T05:33:38;36.83;;;12.90;;
54539;SDS011;40438;52.992;18.604;2024-02-26T05:36:04;30.85;;;12.25;;
54539;SDS011;40438;52.992;18.604;2024-02-26T05:38:30;26.65;;;10.05;;
54539;SDS011;40438;52.992;18.604;2024-02-26T05:40:57;32.63;;;12.32;;
54539;SDS011;40438;52.992;18.604;2024-02-26T05:43:23;37.45;;;14.85;;
54539;SDS011;40438;52.992;18.604;2024-02-26T05:45:50;39.13;;;15.40;;
54539;SDS011;40438;52.992;18.604;2024-02-26T05:48:16;41.10;;;16.17;;
54539;SDS011;40438;52.992;18.604;2024-02-26T05:50:42;33.72;;;15.80;;
54539;SDS011;40438;52.992;18.604;2024-02-26T05:53:07;48.85;;;16.20;;
54539;SDS011;40438;52.992;18.604;2024-02-26T05:55:33;47.50;;;19.15;;
54539;SDS011;40438;52.992;18.604;2024-02-26T05:57:59;53.80;;;20.35;;
54539;SDS011;40438;52.992;18.604;2024-02-26T06:00:25;58.85;;;19.52;;
54539;SDS011;40438;52.992;18.604;2024-02-26T06:02:52;56.25;;;19.02;;
54539;SDS011;40438;52.992;18.604;2024-02-26T06:05:18;49.67;;;17.63;;
54539;SDS011;40438;52.992;18.604;2024-02-26T06:07:44;42.95;;;16.85;;
54539;SDS011;40438;52.992;18.604;2024-02-26T06:10:10;47.53;;;16.75;;
54539;SDS011;40438;52.992;18.604;2024-02-26T06:12:36;47.47;;;17.70;;
54539;SDS011;40438;52.992;18.604;2024-02-26T06:15:02;44.55;;;17.90;;
54539;SDS011;40438;52.992;18.604;2024-02-26T06:17:28;42.92;;;18.05;;
54539;SDS011;40438;52.992;18.604;2024-02-26T06:19:55;41.38;;;15.90;;
54539;SDS011;40438;52.992;18.604;2024-02-26T06:22:21;38.10;;;16.65;;
54539;SDS011;40438;52.992;18.604;2024-02-26T06:24:46;43.50;;;16.92;;
54539;SDS011;40438;52.992;18.604;2024-02-26T06:27:12;38.88;;;16.67;;
54539;SDS011;40438;52.992;18.604;2024-02-26T06:29:38;41.50;;;15.63;;
54539;SDS011;40438;52.992;18.604;2024-02-26T06:32:04;36.22;;;16.65;;
54539;SDS011;40438;52.992;18.604;2024-02-26T06:34:30;41.45;;;16.05;;
54539;SDS011;40438;52.992;18.604;2024-02-26T06:36:57;46.20;;;16.70;;
54539;SDS011;40438;52.992;18.604;2024-02-26T06:39:23;42.20;;;16.60;;
54539;SDS011;40438;52.992;18.604;2024-02-26T06:41:48;47.38;;;19.02;;
54539;SDS011;40438;52.992;18.604;2024-02-26T06:44:14;56.40;;;21.65;;
54539;SDS011;40438;52.992;18.604;2024-02-26T06:46:40;58.78;;;22.05;;
54539;SDS011;40438;52.992;18.604;2024-02-26T06:49:06;70.80;;;20.73;;
54539;SDS011;40438;52.992;18.604;2024-02-26T06:51:31;42.50;;;17.38;;
54539;SDS011;40438;52.992;18.604;2024-02-26T06:53:59;39.83;;;15.88;;
54539;SDS011;40438;52.992;18.604;2024-02-26T06:56:24;39.88;;;15.70;;
54539;SDS011;40438;52.992;18.604;2024-02-26T06:58:50;42.78;;;15.32;;
54539;SDS011;40438;52.992;18.604;2024-02-26T07:01:16;35.75;;;13.95;;
54539;SDS011;40438;52.992;18.604;2024-02-26T07:03:42;30.98;;;12.30;;
54539;SDS011;40438;52.992;18.604;2024-02-26T07:06:08;31.02;;;13.32;;
54539;SDS011;40438;52.992;18.604;2024-02-26T07:08:34;33.17;;;12.05;;
54539;SDS011;40438;52.992;18.604;2024-02-26T07:11:01;30.73;;;11.85;;
54539;SDS011;40438;52.992;18.604;2024-02-26T07:13:27;26.70;;;11.75;;
54539;SDS011;40438;52.992;18.604;2024-02-26T07:15:52;30.38;;;11.70;;
54539;SDS011;40438;52.992;18.604;2024-02-26T07:18:18;32.30;;;11.07;;
54539;SDS011;40438;52.992;18.604;2024-02-26T07:20:44;28.80;;;11.25;;
54539;SDS011;40438;52.992;18.604;2024-02-26T07:23:10;25.30;;;11.63;;
54539;SDS011;40438;52.992;18.604;2024-02-26T07:25:36;28.83;;;11.93;;
54539;SDS011;40438;52.992;18.604;2024-02-26T07:28:03;29.45;;;12.00;;
54539;SDS011;40438;52.992;18.604;2024-02-26T07:30:29;26.10;;;11.07;;
54539;SDS011;40438;52.992;18.604;2024-02-26T07:32:55;27.00;;;11.65;;
54539;SDS011;40438;52.992;18.604;2024-02-26T07:35:21;29.08;;;11.38;;
54539;SDS011;40438;52.992;18.604;2024-02-26T07:37:47;30.65;;;11.25;;
54539;SDS011;40438;52.992;18.604;2024-02-26T07:40:13;28.48;;;10.80;;
54539;SDS011;40438;52.992;18.604;2024-02-26T07:42:39;27.65;;;12.10;;
54539;SDS011;40438;52.992;18.604;2024-02-26T07:45:07;23.00;;;11.00;;
54539;SDS011;40438;52.992;18.604;2024-02-26T07:47:33;27.60;;;11.75;;
54539;SDS011;40438;52.992;18.604;2024-02-26T07:49:59;29.02;;;12.05;;
54539;SDS011;40438;52.992;18.604;2024-02-26T07:52:24;25.80;;;10.75;;
54539;SDS011;40438;52.992;18.604;2024-02-26T07:54:50;28.52;;;11.88;;
54539;SDS011;40438;52.992;18.604;2024-02-26T07:57:16;33.50;;;11.63;;
54539;SDS011;40438;52.992;18.604;2024-02-26T07:59:42;32.03;;;12.60;;
54539;SDS011;40438;52.992;18.604;2024-02-26T08:02:09;26.77;;;12.23;;
54539;SDS011;40438;52.992;18.604;2024-02-26T08:04:35;31.17;;;12.65;;
54539;SDS011;40438;52.992;18.604;2024-02-26T08:07:01;24.70;;;12.18;;
54539;SDS011;40438;52.992;18.604;2024-02-26T08:09:27;29.63;;;11.57;;
54539;SDS011;40438;52.992;18.604;2024-02-26T08:11:52;28.58;;;13.35;;
54539;SDS011;40438;52.992;18.604;2024-02-26T08:14:18;26.02;;;11.35;;
54539;SDS011;40438;52.992;18.604;2024-02-26T08:16:44;29.20;;;11.40;;
54539;SDS011;40438;52.992;18.604;2024-02-26T08:19:11;30.58;;;13.55;;
54539;SDS011;40438;52.992;18.604;2024-02-26T08:21:37;29.52;;;12.38;;
54539;SDS011;40438;52.992;18.604;2024-02-26T08:24:03;34.67;;;14.70;;
54539;SDS011;40438;52.992;18.604;2024-02-26T08:26:29;32.40;;;16.05;;
54539;SDS011;40438;52.992;18.604;2024-02-26T08:28:55;33.55;;;15.70;;
54539;SDS011;40438;52.992;18.604;2024-02-26T08:31:20;30.33;;;12.65;;
54539;SDS011;40438;52.992;18.604;2024-02-26T08:33:46;24.25;;;11.43;;
54539;SDS011;40438;52.992;18.604;2024-02-26T08:36:13;25.92;;;11.57;;
54539;SDS011;40438;52.992;18.604;2024-02-26T08:38:39;29.42;;;12.00;;
54539;SDS011;40438;52.992;18.604;2024-02-26T08:41:05;21.75;;;10.85;;
54539;SDS011;40438;52.992;18.604;2024-02-26T08:43:31;30.30;;;12.25;;
54539;SDS011;40438;52.992;18.604;2024-02-26T08:45:57;26.67;;;10.77;;
54539;SDS011;40438;52.992;18.604;2024-02-26T08:48:23;24.00;;;10.75;;
54539;SDS011;40438;52.992;18.604;2024-02-26T08:50:48;19.73;;;10.13;;
54539;SDS011;40438;52.992;18.604;2024-02-26T08:53:16;24.50;;;10.45;;
54539;SDS011;40438;52.992;18.604;2024-02-26T08:55:41;21.95;;;10.32;;
54539;SDS011;40438;52.992;18.604;2024-02-26T08:58:08;22.45;;;10.57;;
54539;SDS011;40438;52.992;18.604;2024-02-26T09:00:33;23.63;;;10.35;;
54539;SDS011;40438;52.992;18.604;2024-02-26T09:03:00;22.17;;;10.80;;
54539;SDS011;40438;52.992;18.604;2024-02-26T09:05:26;26.25;;;10.80;;
54539;SDS011;40438;52.992;18.604;2024-02-26T09:07:52;25.45;;;10.95;;
54539;SDS011;40438;52.992;18.604;2024-02-26T09:10:19;25.98;;;10.77;;
54539;SDS011;40438;52.992;18.604;2024-02-26T09:12:45;59.92;;;20.60;;
54539;SDS011;40438;52.992;18.604;2024-02-26T09:15:10;27.25;;;13.18;;
54539;SDS011;40438;52.992;18.604;2024-02-26T09:17:36;27.73;;;15.40;;
54539;SDS011;40438;52.992;18.604;2024-02-26T09:20:02;33.20;;;15.68;;
54539;SDS011;40438;52.992;18.604;2024-02-26T09:22:29;22.50;;;11.25;;
54539;SDS011;40438;52.992;18.604;2024-02-26T09:24:55;23.17;;;10.90;;
54539;SDS011;40438;52.992;18.604;2024-02-26T09:27:22;25.90;;;13.63;;
54539;SDS011;40438;52.992;18.604;2024-02-26T09:29:47;19.55;;;9.80;;
54539;SDS011;40438;52.992;18.604;2024-02-26T09:32:13;22.70;;;10.60;;
54539;SDS011;40438;52.992;18.604;2024-02-26T09:34:40;30.67;;;17.15;;
54539;SDS011;40438;52.992;18.604;2024-02-26T09:37:05;27.77;;;15.98;;
54539;SDS011;40438;52.992;18.604;2024-02-26T09:39:31;26.92;;;11.27;;
54539;SDS011;40438;52.992;18.604;2024-02-26T09:41:57;20.08;;;9.70;;
54539;SDS011;40438;52.992;18.604;2024-02-26T09:44:24;25.50;;;14.13;;
54539;SDS011;40438;52.992;18.604;2024-02-26T09:46:51;23.10;;;11.95;;
54539;SDS011;40438;52.992;18.604;2024-02-26T09:49:18;25.60;;;12.07;;
54539;SDS011;40438;52.992;18.604;2024-02-26T09:51:47;21.70;;;10.73;;
54539;SDS011;40438;52.992;18.604;2024-02-26T09:54:14;23.88;;;13.13;;
54539;SDS011;40438;52.992;18.604;2024-02-26T09:56:42;23.13;;;12.23;;
54539;SDS011;40438;52.992;18.604;2024-02-26T09:59:10;24.77;;;11.90;;
54539;SDS011;40438;52.992;18.604;2024-02-26T10:01:41;21.67;;;11.07;;
54539;SDS011;40438;52.992;18.604;2024-02-26T10:04:09;22.45;;;10.45;;
54539;SDS011;40438;52.992;18.604;2024-02-26T10:06:36;20.83;;;10.35;;
54539;SDS011;40438;52.992;18.604;2024-02-26T10:09:02;20.27;;;10.65;;
54539;SDS011;40438;52.992;18.604;2024-02-26T10:11:28;24.17;;;11.30;;
54539;SDS011;40438;52.992;18.604;2024-02-26T10:13:56;18.77;;;9.73;;
54539;SDS011;40438;52.992;18.604;2024-02-26T10:16:21;23.33;;;10.85;;
54539;SDS011;40438;52.992;18.604;2024-02-26T10:18:49;25.70;;;12.52;;
54539;SDS011;40438;52.992;18.604;2024-02-26T10:21:16;23.58;;;12.43;;
54539;SDS011;40438;52.992;18.604;2024-02-26T10:23:42;25.65;;;12.13;;
54539;SDS011;40438;52.992;18.604;2024-02-26T10:26:08;20.38;;;10.70;;
54539;SDS011;40438;52.992;18.604;2024-02-26T10:28:37;22.88;;;11.98;;
54539;SDS011;40438;52.992;18.604;2024-02-26T10:31:03;22.45;;;11.90;;
54539;SDS011;40438;52.992;18.604;2024-02-26T10:33:29;22.67;;;13.15;;
54539;SDS011;40438;52.992;18.604;2024-02-26T10:35:56;26.85;;;12.55;;
54539;SDS011;40438;52.992;18.604;2024-02-26T10:38:22;22.27;;;11.50;;
54539;SDS011;40438;52.992;18.604;2024-02-26T10:40:48;33.58;;;15.77;;
54539;SDS011;40438;52.992;18.604;2024-02-26T10:43:14;113.90;;;48.83;;
54539;SDS011;40438;52.992;18.604;2024-02-26T10:45:40;28.02;;;13.68;;
54539;SDS011;40438;52.992;18.604;2024-02-26T10:48:07;17.10;;;9.05;;
54539;SDS011;40438;52.992;18.604;2024-02-26T10:50:35;19.98;;;9.20;;
54539;SDS011;40438;52.992;18.604;2024-02-26T10:53:02;24.35;;;13.88;;
54539;SDS011;40438;52.992;18.604;2024-02-26T10:55:32;21.15;;;12.55;;
54539;SDS011;40438;52.992;18.604;2024-02-26T10:57:59;20.08;;;10.32;;
54539;SDS011;40438;52.992;18.604;2024-02-26T11:00:24;21.15;;;9.48;;
54539;SDS011;40438;52.992;18.604;2024-02-26T11:02:51;22.50;;;11.10;;
54539;SDS011;40438;52.992;18.604;2024-02-26T11:05:17;18.38;;;9.10;;
54539;SDS011;40438;52.992;18.604;2024-02-26T11:07:44;19.30;;;8.73;;
54539;SDS011;40438;52.992;18.604;2024-02-26T11:10:12;15.27;;;8.77;;
54539;SDS011;40438;52.992;18.604;2024-02-26T11:12:39;17.67;;;8.80;;
54539;SDS011;40438;52.992;18.604;2024-02-26T11:15:05;19.92;;;9.30;;
54539;SDS011;40438;52.992;18.604;2024-02-26T11:17:31;17.20;;;8.40;;
54539;SDS011;40438;52.992;18.604;2024-02-26T11:19:59;16.95;;;8.55;;
54539;SDS011;40438;52.992;18.604;2024-02-26T11:22:25;16.05;;;8.70;;
54539;SDS011;40438;52.992;18.604;2024-02-26T11:24:51;13.02;;;6.93;;
54539;SDS011;40438;52.992;18.604;2024-02-26T11:27:18;14.23;;;6.90;;
54539;SDS011;40438;52.992;18.604;2024-02-26T11:29:48;13.15;;;6.53;;
54539;SDS011;40438;52.992;18.604;2024-02-26T11:32:15;12.73;;;6.88;;
54539;SDS011;40438;52.992;18.604;2024-02-26T11:34:42;12.85;;;6.85;;
54539;SDS011;40438;52.992;18.604;2024-02-26T11:37:09;12.48;;;5.97;;
54539;SDS011;40438;52.992;18.604;2024-02-26T11:39:35;15.27;;;8.57;;
54539;SDS011;40438;52.992;18.604;2024-02-26T11:42:04;19.45;;;8.98;;
54539;SDS011;40438;52.992;18.604;2024-02-26T11:44:32;19.67;;;10.25;;
54539;SDS011;40438;52.992;18.604;2024-02-26T11:46:58;28.77;;;20.35;;
54539;SDS011;40438;52.992;18.604;2024-02-26T11:49:30;31.15;;;21.17;;
54539;SDS011;40438;52.992;18.604;2024-02-26T11:51:57;12.60;;;7.60;;
54539;SDS011;40438;52.992;18.604;2024-02-26T11:54:39;12.35;;;7.70;;
54539;SDS011;40438;52.992;18.604;2024-02-26T11:57:24;12.27;;;6.28;;
54539;SDS011;40438;52.992;18.604;2024-02-26T11:59:52;13.27;;;6.82;;
54539;SDS011;40438;52.992;18.604;2024-02-26T12:05:06;10.18;;;5.55;;
54539;SDS011;40438;52.992;18.604;2024-02-26T12:07:34;10.65;;;5.45;;
54539;SDS011;40438;52.992;18.604;2024-02-26T12:10:13;15.60;;;7.43;;
54539;SDS011;40438;52.992;18.604;2024-02-26T12:12:41;11.05;;;6.35;;
54539;SDS011;40438;52.992;18.604;2024-02-26T12:15:08;9.75;;;5.93;;
54539;SDS011;40438;52.992;18.604;2024-02-26T12:17:34;11.63;;;5.72;;
54539;SDS011;40438;52.992;18.604;2024-02-26T12:20:07;10.73;;;6.00;;
54539;SDS011;40438;52.992;18.604;2024-02-26T12:22:34;23.80;;;10.30;;
54539;SDS011;40438;52.992;18.604;2024-02-26T12:25:00;45.88;;;18.92;;
54539;SDS011;40438;52.992;18.604;2024-02-26T12:27:25;23.25;;;10.43;;
54539;SDS011;40438;52.992;18.604;2024-02-26T12:29:51;14.25;;;7.25;;
54539;SDS011;40438;52.992;18.604;2024-02-26T12:32:19;17.60;;;8.05;;
54539;SDS011;40438;52.992;18.604;2024-02-26T12:34:45;44.80;;;19.75;;
54539;SDS011;40438;52.992;18.604;2024-02-26T12:37:11;20.67;;;12.45;;
54539;SDS011;40438;52.992;18.604;2024-02-26T12:39:37;13.48;;;7.18;;
54539;SDS011;40438;52.992;18.604;2024-02-26T12:42:04;13.50;;;7.20;;
54539;SDS011;40438;52.992;18.604;2024-02-26T12:44:31;23.17;;;14.65;;
54539;SDS011;40438;52.992;18.604;2024-02-26T12:46:59;13.80;;;8.85;;
54539;SDS011;40438;52.992;18.604;2024-02-26T12:49:27;9.85;;;5.97;;
54539;SDS011;40438;52.992;18.604;2024-02-26T12:51:52;11.50;;;6.10;;
54539;SDS011;40438;52.992;18.604;2024-02-26T12:54:18;8.73;;;5.78;;
54539;SDS011;40438;52.992;18.604;2024-02-26T12:56:44;9.30;;;4.40;;
54539;SDS011;40438;52.992;18.604;2024-02-26T12:59:10;11.05;;;4.40;;
54539;SDS011;40438;52.992;18.604;2024-02-26T13:01:36;6.35;;;3.45;;
54539;SDS011;40438;52.992;18.604;2024-02-26T13:04:02;7.57;;;3.53;;
54539;SDS011;40438;52.992;18.604;2024-02-26T13:06:30;7.60;;;3.40;;
54539;SDS011;40438;52.992;18.604;2024-02-26T13:08:57;9.13;;;3.78;;
54539;SDS011;40438;52.992;18.604;2024-02-26T13:11:23;7.82;;;4.07;;
54539;SDS011;40438;52.992;18.604;2024-02-26T13:13:49;6.13;;;3.97;;
54539;SDS011;40438;52.992;18.604;2024-02-26T13:16:14;6.40;;;4.25;;
54539;SDS011;40438;52.992;18.604;2024-02-26T13:18:40;9.25;;;3.70;;
54539;SDS011;40438;52.992;18.604;2024-02-26T13:21:07;9.75;;;4.78;;
54539;SDS011;40438;52.992;18.604;2024-02-26T13:23:38;7.03;;;4.28;;
54539;SDS011;40438;52.992;18.604;2024-02-26T13:26:04;10.82;;;4.28;;
54539;SDS011;40438;52.992;18.604;2024-02-26T13:28:30;6.05;;;4.00;;
54539;SDS011;40438;52.992;18.604;2024-02-26T13:30:57;7.75;;;4.20;;
54539;SDS011;40438;52.992;18.604;2024-02-26T13:33:23;25.92;;;11.32;;
54539;SDS011;40438;52.992;18.604;2024-02-26T13:35:49;8.85;;;5.35;;
54539;SDS011;40438;52.992;18.604;2024-02-26T13:38:15;7.25;;;4.43;;
54539;SDS011;40438;52.992;18.604;2024-02-26T13:40:42;9.02;;;4.68;;
54539;SDS011;40438;52.992;18.604;2024-02-26T13:43:08;9.02;;;4.95;;
54539;SDS011;40438;52.992;18.604;2024-02-26T13:45:34;44.72;;;21.58;;
54539;SDS011;40438;52.992;18.604;2024-02-26T13:48:06;12.27;;;6.60;;
54539;SDS011;40438;52.992;18.604;2024-02-26T13:50:33;9.23;;;5.78;;
54539;SDS011;40438;52.992;18.604;2024-02-26T13:52:59;17.42;;;9.05;;
54539;SDS011;40438;52.992;18.604;2024-02-26T13:55:25;11.60;;;6.60;;
54539;SDS011;40438;52.992;18.604;2024-02-26T13:57:52;20.02;;;9.15;;
54539;SDS011;40438;52.992;18.604;2024-02-26T14:00:18;18.35;;;8.52;;
54539;SDS011;40438;52.992;18.604;2024-02-26T14:02:44;29.40;;;13.13;;
54539;SDS011;40438;52.992;18.604;2024-02-26T14:05:10;23.95;;;10.52;;
54539;SDS011;40438;52.992;18.604;2024-02-26T14:07:35;24.02;;;10.43;;
54539;SDS011;40438;52.992;18.604;2024-02-26T14:10:01;23.65;;;12.52;;